sensor_id;sensor_type;location;lat;lon;timestamp;temperature;humidity
6863;DHT22;3470;48.738;9.616;2023-02-15T00:00:21;-1.70;99.90
6863;DHT22;3470;48.738;9.616;2023-02-15T00:02:46;-1.70;99.90
6863;DHT22;3470;48.738;9.616;2023-02-15T00:05:12;-1.80;99.90
6863;DHT22;3470;48.738;9.616;2023-02-15T00:07:37;-1.80;99.90
6863;DHT22;3470;48.738;9.616;2023-02-15T00:10:03;-1.80;99.90
6863;DHT22;3470;48.738;9.616;2023-02-15T00:12:29;-1.60;99.90
6863;DHT22;3470;48.738;9.616;2023-02-15T00:14:55;-1.60;99.90
6863;DHT22;3470;48.738;9.616;2023-02-15T00:17:21;-1.50;99.90
6863;DHT22;3470;48.738;9.616;2023-02-15T00:19:46;-1.40;99.90
6863;DHT22;3470;48.738;9.616;2023-02-15T00:22:12;-1.50;99.90
6863;DHT22;3470;48.738;9.616;2023-02-15T00:24:38;-1.40;99.90
6863;DHT22;3470;48.738;9.616;2023-02-15T00:27:03;-1.50;99.90
6863;DHT22;3470;48.738;9.616;2023-02-15T00:29:29;-1.60;99.90
6863;DHT22;3470;48.738;9.616;2023-02-15T00:31:54;-1.50;99.90
6863;DHT22;3470;48.738;9.616;2023-02-15T00:34:26;-1.50;99.90
6863;DHT22;3470;48.738;9.616;2023-02-15T00:36:52;-1.50;99.90
6863;DHT22;3470;48.738;9.616;2023-02-15T00:39:18;-1.50;99.90
6863;DHT22;3470;48.738;9.616;2023-02-15T00:41:45;-1.50;99.90
6863;DHT22;3470;48.738;9.616;2023-02-15T00:44:11;-1.30;99.90
6863;DHT22;3470;48.738;9.616;2023-02-15T00:46:36;-1.30;99.90
6863;DHT22;3470;48.738;9.616;2023-02-15T00:49:03;-1.30;99.90
6863;DHT22;3470;48.738;9.616;2023-02-15T00:51:29;-1.30;99.90
6863;DHT22;3470;48.738;9.616;2023-02-15T00:53:55;-1.30;99.90
6863;DHT22;3470;48.738;9.616;2023-02-15T00:56:20;-1.30;99.90
6863;DHT22;3470;48.738;9.616;2023-02-15T00:58:46;-1.30;99.90
6863;DHT22;3470;48.738;9.616;2023-02-15T01:01:14;-1.40;99.90
6863;DHT22;3470;48.738;9.616;2023-02-15T01:03:41;-1.40;99.90
6863;DHT22;3470;48.738;9.616;2023-02-15T01:06:07;-1.50;99.90
6863;DHT22;3470;48.738;9.616;2023-02-15T01:08:33;-1.40;99.90
6863;DHT22;3470;48.738;9.616;2023-02-15T01:11:07;-1.30;99.90
6863;DHT22;3470;48.738;9.616;2023-02-15T01:13:34;-1.30;99.90
6863;DHT22;3470;48.738;9.616;2023-02-15T01:16:00;-1.30;99.90
6863;DHT22;3470;48.738;9.616;2023-02-15T01:18:26;-1.10;99.90
6863;DHT22;3470;48.738;9.616;2023-02-15T01:20:52;-1.10;99.90
6863;DHT22;3470;48.738;9.616;2023-02-15T01:23:17;-1.20;99.90
6863;DHT22;3470;48.738;9.616;2023-02-15T01:25:43;-1.30;99.90
6863;DHT22;3470;48.738;9.616;2023-02-15T01:28:09;-1.30;99.90
6863;DHT22;3470;48.738;9.616;2023-02-15T01:30:34;-1.40;99.90
6863;DHT22;3470;48.738;9.616;2023-02-15T01:33:00;-1.40;99.90
6863;DHT22;3470;48.738;9.616;2023-02-15T01:35:27;-1.30;99.90
6863;DHT22;3470;48.738;9.616;2023-02-15T01:37:52;-1.20;99.90
6863;DHT22;3470;48.738;9.616;2023-02-15T01:40:18;-1.30;99.90
6863;DHT22;3470;48.738;9.616;2023-02-15T01:42:44;-1.30;99.90
6863;DHT22;3470;48.738;9.616;2023-02-15T01:50:24;-1.60;99.90
6863;DHT22;3470;48.738;9.616;2023-02-15T01:55:55;-1.70;99.90
6863;DHT22;3470;48.738;9.616;2023-02-15T01:58:23;-1.80;99.90
6863;DHT22;3470;48.738;9.616;2023-02-15T02:00:49;-1.90;99.90
6863;DHT22;3470;48.738;9.616;2023-02-15T02:03:15;-1.90;99.90
6863;DHT22;3470;48.738;9.616;2023-02-15T02:05:41;-1.90;99.90
6863;DHT22;3470;48.738;9.616;2023-02-15T02:08:07;-1.90;99.90
6863;DHT22;3470;48.738;9.616;2023-02-15T02:10:35;-2.00;99.90
6863;DHT22;3470;48.738;9.616;2023-02-15T02:13:04;-2.00;99.90
6863;DHT22;3470;48.738;9.616;2023-02-15T02:15:45;-2.00;99.90
6863;DHT22;3470;48.738;9.616;2023-02-15T02:23:36;-1.90;99.90
6863;DHT22;3470;48.738;9.616;2023-02-15T02:35:11;-1.90;99.90
6863;DHT22;3470;48.738;9.616;2023-02-15T02:37:46;-1.90;99.90
6863;DHT22;3470;48.738;9.616;2023-02-15T02:42:46;-1.90;99.90
6863;DHT22;3470;48.738;9.616;2023-02-15T02:45:32;-1.90;99.90
6863;DHT22;3470;48.738;9.616;2023-02-15T02:48:23;-1.70;99.90
6863;DHT22;3470;48.738;9.616;2023-02-15T02:50:49;-1.70;99.90
6863;DHT22;3470;48.738;9.616;2023-02-15T02:53:15;-1.80;99.90
6863;DHT22;3470;48.738;9.616;2023-02-15T02:59:30;-1.90;99.90
6863;DHT22;3470;48.738;9.616;2023-02-15T03:01:51;-2.00;99.90
6863;DHT22;3470;48.738;9.616;2023-02-15T03:04:39;-2.10;99.90
6863;DHT22;3470;48.738;9.616;2023-02-15T03:07:13;-2.00;99.90
6863;DHT22;3470;48.738;9.616;2023-02-15T03:09:43;-2.00;99.90
6863;DHT22;3470;48.738;9.616;2023-02-15T03:12:16;-2.00;99.90
6863;DHT22;3470;48.738;9.616;2023-02-15T03:14:46;-2.00;99.90
6863;DHT22;3470;48.738;9.616;2023-02-15T03:17:14;-2.00;99.90
6863;DHT22;3470;48.738;9.616;2023-02-15T03:19:40;-2.10;99.90
6863;DHT22;3470;48.738;9.616;2023-02-15T03:22:30;-2.20;99.90
6863;DHT22;3470;48.738;9.616;2023-02-15T03:25:02;-2.30;99.90
6863;DHT22;3470;48.738;9.616;2023-02-15T03:27:38;-2.30;99.90
6863;DHT22;3470;48.738;9.616;2023-02-15T03:30:05;-2.40;99.90
6863;DHT22;3470;48.738;9.616;2023-02-15T03:32:33;-2.30;99.90
6863;DHT22;3470;48.738;9.616;2023-02-15T03:35:00;-2.30;99.90
6863;DHT22;3470;48.738;9.616;2023-02-15T03:37:39;-2.30;99.90
6863;DHT22;3470;48.738;9.616;2023-02-15T03:43:24;-2.30;99.90
6863;DHT22;3470;48.738;9.616;2023-02-15T03:45:57;-2.20;99.90
6863;DHT22;3470;48.738;9.616;2023-02-15T03:48:32;-2.10;99.90
6863;DHT22;3470;48.738;9.616;2023-02-15T03:51:09;-2.20;99.90
6863;DHT22;3470;48.738;9.616;2023-02-15T03:53:55;-2.20;99.90
6863;DHT22;3470;48.738;9.616;2023-02-15T03:56:22;-2.20;99.90
6863;DHT22;3470;48.738;9.616;2023-02-15T03:58:48;-2.30;99.90
6863;DHT22;3470;48.738;9.616;2023-02-15T04:01:37;-2.30;99.90
6863;DHT22;3470;48.738;9.616;2023-02-15T04:06:55;-2.30;99.90
6863;DHT22;3470;48.738;9.616;2023-02-15T04:09:21;-2.40;99.90
6863;DHT22;3470;48.738;9.616;2023-02-15T04:12:05;-2.40;99.90
6863;DHT22;3470;48.738;9.616;2023-02-15T04:14:30;-2.50;99.90
6863;DHT22;3470;48.738;9.616;2023-02-15T04:17:14;-2.50;99.90
6863;DHT22;3470;48.738;9.616;2023-02-15T04:19:40;-2.60;99.90
6863;DHT22;3470;48.738;9.616;2023-02-15T04:22:24;-2.60;99.90
6863;DHT22;3470;48.738;9.616;2023-02-15T04:25:08;-2.60;99.90
6863;DHT22;3470;48.738;9.616;2023-02-15T04:27:48;-2.70;99.90
6863;DHT22;3470;48.738;9.616;2023-02-15T04:30:16;-2.70;99.90
6863;DHT22;3470;48.738;9.616;2023-02-15T04:32:42;-2.70;99.90
6863;DHT22;3470;48.738;9.616;2023-02-15T04:35:08;-2.70;99.90
6863;DHT22;3470;48.738;9.616;2023-02-15T04:37:34;-2.80;99.90
6863;DHT22;3470;48.738;9.616;2023-02-15T04:40:00;-2.80;99.90
6863;DHT22;3470;48.738;9.616;2023-02-15T04:42:26;-2.70;99.90
6863;DHT22;3470;48.738;9.616;2023-02-15T04:44:53;-2.60;99.90
6863;DHT22;3470;48.738;9.616;2023-02-15T04:47:18;-2.70;99.90
6863;DHT22;3470;48.738;9.616;2023-02-15T04:49:47;-2.70;99.90
6863;DHT22;3470;48.738;9.616;2023-02-15T04:52:12;-2.70;99.90
6863;DHT22;3470;48.738;9.616;2023-02-15T04:54:38;-2.70;99.90
6863;DHT22;3470;48.738;9.616;2023-02-15T04:57:04;-2.70;99.90
6863;DHT22;3470;48.738;9.616;2023-02-15T04:59:30;-2.70;99.90
6863;DHT22;3470;48.738;9.616;2023-02-15T05:01:56;-2.70;99.90
6863;DHT22;3470;48.738;9.616;2023-02-15T05:04:22;-2.80;99.90
6863;DHT22;3470;48.738;9.616;2023-02-15T05:06:47;-2.70;99.90
6863;DHT22;3470;48.738;9.616;2023-02-15T05:09:14;-2.70;99.90
6863;DHT22;3470;48.738;9.616;2023-02-15T05:11:40;-2.80;99.90
6863;DHT22;3470;48.738;9.616;2023-02-15T05:14:06;-2.80;99.90
6863;DHT22;3470;48.738;9.616;2023-02-15T05:16:31;-2.90;99.90
6863;DHT22;3470;48.738;9.616;2023-02-15T05:18:57;-2.80;99.90
6863;DHT22;3470;48.738;9.616;2023-02-15T05:21:22;-2.80;99.90
6863;DHT22;3470;48.738;9.616;2023-02-15T05:23:48;-2.80;99.90
6863;DHT22;3470;48.738;9.616;2023-02-15T05:26:18;-2.80;99.90
6863;DHT22;3470;48.738;9.616;2023-02-15T05:29:02;-2.70;99.90
6863;DHT22;3470;48.738;9.616;2023-02-15T05:31:28;-2.80;99.90
6863;DHT22;3470;48.738;9.616;2023-02-15T05:33:54;-2.70;99.90
6863;DHT22;3470;48.738;9.616;2023-02-15T05:36:19;-2.80;99.90
6863;DHT22;3470;48.738;9.616;2023-02-15T05:38:45;-2.80;99.90
6863;DHT22;3470;48.738;9.616;2023-02-15T05:41:11;-2.80;99.90
6863;DHT22;3470;48.738;9.616;2023-02-15T05:43:38;-2.80;99.90
6863;DHT22;3470;48.738;9.616;2023-02-15T05:46:04;-2.80;99.90
6863;DHT22;3470;48.738;9.616;2023-02-15T05:48:30;-2.70;99.90
6863;DHT22;3470;48.738;9.616;2023-02-15T05:51:01;-2.70;99.90
6863;DHT22;3470;48.738;9.616;2023-02-15T05:53:28;-2.80;99.90
6863;DHT22;3470;48.738;9.616;2023-02-15T05:55:55;-2.80;99.90
6863;DHT22;3470;48.738;9.616;2023-02-15T05:58:25;-2.80;99.90
6863;DHT22;3470;48.738;9.616;2023-02-15T06:00:51;-2.70;99.90
6863;DHT22;3470;48.738;9.616;2023-02-15T06:03:17;-2.70;99.90
6863;DHT22;3470;48.738;9.616;2023-02-15T06:05:43;-2.60;99.90
6863;DHT22;3470;48.738;9.616;2023-02-15T06:08:08;-2.60;99.90
6863;DHT22;3470;48.738;9.616;2023-02-15T06:10:34;-2.60;99.90
6863;DHT22;3470;48.738;9.616;2023-02-15T06:12:59;-2.70;99.90
6863;DHT22;3470;48.738;9.616;2023-02-15T06:15:25;-2.80;99.90
6863;DHT22;3470;48.738;9.616;2023-02-15T06:17:50;-2.80;99.90
6863;DHT22;3470;48.738;9.616;2023-02-15T06:20:16;-2.90;99.90
6863;DHT22;3470;48.738;9.616;2023-02-15T06:22:42;-2.80;99.90
6863;DHT22;3470;48.738;9.616;2023-02-15T06:25:07;-2.80;99.90
6863;DHT22;3470;48.738;9.616;2023-02-15T06:27:35;-2.60;99.90
6863;DHT22;3470;48.738;9.616;2023-02-15T06:30:01;-2.60;99.90
6863;DHT22;3470;48.738;9.616;2023-02-15T06:32:26;-2.50;99.90
6863;DHT22;3470;48.738;9.616;2023-02-15T06:34:52;-2.50;99.90
6863;DHT22;3470;48.738;9.616;2023-02-15T06:37:17;-2.50;99.90
6863;DHT22;3470;48.738;9.616;2023-02-15T06:39:43;-2.60;99.90
6863;DHT22;3470;48.738;9.616;2023-02-15T06:42:09;-2.60;99.90
6863;DHT22;3470;48.738;9.616;2023-02-15T06:44:35;-2.30;99.90
6863;DHT22;3470;48.738;9.616;2023-02-15T06:47:00;-1.90;99.90
6863;DHT22;3470;48.738;9.616;2023-02-15T06:49:26;-1.50;99.90
6863;DHT22;3470;48.738;9.616;2023-02-15T06:51:51;-1.10;99.90
6863;DHT22;3470;48.738;9.616;2023-02-15T06:54:17;-0.60;99.90
6863;DHT22;3470;48.738;9.616;2023-02-15T06:56:42;-0.30;99.90
6863;DHT22;3470;48.738;9.616;2023-02-15T06:59:09;0.00;99.90
6863;DHT22;3470;48.738;9.616;2023-02-15T07:01:34;0.40;99.90
6863;DHT22;3470;48.738;9.616;2023-02-15T07:04:02;0.80;99.90
6863;DHT22;3470;48.738;9.616;2023-02-15T07:06:32;1.20;99.90
6863;DHT22;3470;48.738;9.616;2023-02-15T07:08:58;1.50;99.90
6863;DHT22;3470;48.738;9.616;2023-02-15T07:11:24;1.70;99.90
6863;DHT22;3470;48.738;9.616;2023-02-15T07:14:08;2.00;99.90
6863;DHT22;3470;48.738;9.616;2023-02-15T07:16:34;2.60;99.90
6863;DHT22;3470;48.738;9.616;2023-02-15T07:18:59;2.90;99.90
6863;DHT22;3470;48.738;9.616;2023-02-15T07:21:25;3.20;99.90
6863;DHT22;3470;48.738;9.616;2023-02-15T07:23:50;3.60;99.90
6863;DHT22;3470;48.738;9.616;2023-02-15T07:26:16;3.90;99.90
6863;DHT22;3470;48.738;9.616;2023-02-15T07:28:42;4.40;99.90
6863;DHT22;3470;48.738;9.616;2023-02-15T07:31:07;4.90;99.90
6863;DHT22;3470;48.738;9.616;2023-02-15T07:33:34;5.20;99.90
6863;DHT22;3470;48.738;9.616;2023-02-15T07:36:02;5.90;99.90
6863;DHT22;3470;48.738;9.616;2023-02-15T07:38:33;6.40;99.90
6863;DHT22;3470;48.738;9.616;2023-02-15T07:41:04;6.70;99.90
6863;DHT22;3470;48.738;9.616;2023-02-15T07:43:32;7.10;99.90
6863;DHT22;3470;48.738;9.616;2023-02-15T07:46:02;7.80;99.90
6863;DHT22;3470;48.738;9.616;2023-02-15T07:48:28;8.20;99.90
6863;DHT22;3470;48.738;9.616;2023-02-15T07:50:53;8.30;99.90
6863;DHT22;3470;48.738;9.616;2023-02-15T07:53:19;8.60;97.60
6863;DHT22;3470;48.738;9.616;2023-02-15T07:55:45;9.10;97.30
6863;DHT22;3470;48.738;9.616;2023-02-15T07:58:10;9.60;94.80
6863;DHT22;3470;48.738;9.616;2023-02-15T08:00:36;9.70;93.10
6863;DHT22;3470;48.738;9.616;2023-02-15T08:03:25;10.20;91.20
6863;DHT22;3470;48.738;9.616;2023-02-15T08:05:56;10.40;90.60
6863;DHT22;3470;48.738;9.616;2023-02-15T08:08:23;11.10;88.40
6863;DHT22;3470;48.738;9.616;2023-02-15T08:11:19;11.10;87.20
6863;DHT22;3470;48.738;9.616;2023-02-15T08:14:15;12.00;83.60
6863;DHT22;3470;48.738;9.616;2023-02-15T08:16:42;12.40;81.10
6863;DHT22;3470;48.738;9.616;2023-02-15T08:19:18;12.20;81.30
6863;DHT22;3470;48.738;9.616;2023-02-15T08:21:46;12.50;79.00
6863;DHT22;3470;48.738;9.616;2023-02-15T08:24:13;13.20;77.80
6863;DHT22;3470;48.738;9.616;2023-02-15T08:26:39;13.80;76.20
6863;DHT22;3470;48.738;9.616;2023-02-15T08:29:06;12.50;76.20
6863;DHT22;3470;48.738;9.616;2023-02-15T08:31:33;13.40;75.40
6863;DHT22;3470;48.738;9.616;2023-02-15T08:33:59;13.20;73.70
6863;DHT22;3470;48.738;9.616;2023-02-15T08:36:29;13.90;73.10
6863;DHT22;3470;48.738;9.616;2023-02-15T08:39:02;15.00;71.30
6863;DHT22;3470;48.738;9.616;2023-02-15T08:41:30;15.10;70.10
6863;DHT22;3470;48.738;9.616;2023-02-15T08:43:58;15.90;68.90
6863;DHT22;3470;48.738;9.616;2023-02-15T08:46:27;16.80;66.30
6863;DHT22;3470;48.738;9.616;2023-02-15T08:48:53;16.50;65.80
6863;DHT22;3470;48.738;9.616;2023-02-15T08:51:24;16.80;65.60
6863;DHT22;3470;48.738;9.616;2023-02-15T08:53:55;17.60;63.90
6863;DHT22;3470;48.738;9.616;2023-02-15T08:56:24;17.40;63.40
6863;DHT22;3470;48.738;9.616;2023-02-15T08:58:52;17.80;62.60
6863;DHT22;3470;48.738;9.616;2023-02-15T09:01:20;17.70;63.60
6863;DHT22;3470;48.738;9.616;2023-02-15T09:03:48;18.20;62.10
6863;DHT22;3470;48.738;9.616;2023-02-15T09:06:15;18.50;61.40
6863;DHT22;3470;48.738;9.616;2023-02-15T09:08:41;18.90;61.00
6863;DHT22;3470;48.738;9.616;2023-02-15T09:11:12;19.60;59.50
6863;DHT22;3470;48.738;9.616;2023-02-15T09:13:39;19.90;59.10
6863;DHT22;3470;48.738;9.616;2023-02-15T09:16:07;20.30;58.10
6863;DHT22;3470;48.738;9.616;2023-02-15T09:18:38;20.00;58.10
6863;DHT22;3470;48.738;9.616;2023-02-15T09:21:05;20.50;57.40
6863;DHT22;3470;48.738;9.616;2023-02-15T09:23:31;20.10;57.80
6863;DHT22;3470;48.738;9.616;2023-02-15T09:25:56;20.60;57.40
6863;DHT22;3470;48.738;9.616;2023-02-15T09:28:22;20.80;56.70
6863;DHT22;3470;48.738;9.616;2023-02-15T09:30:47;21.20;56.10
6863;DHT22;3470;48.738;9.616;2023-02-15T09:33:13;21.50;55.90
6863;DHT22;3470;48.738;9.616;2023-02-15T09:35:38;21.90;55.00
6863;DHT22;3470;48.738;9.616;2023-02-15T09:38:04;22.20;55.10
6863;DHT22;3470;48.738;9.616;2023-02-15T09:40:33;22.00;55.40
6863;DHT22;3470;48.738;9.616;2023-02-15T09:43:19;21.60;55.20
6863;DHT22;3470;48.738;9.616;2023-02-15T09:46:26;21.80;55.40
6863;DHT22;3470;48.738;9.616;2023-02-15T09:48:52;21.90;55.60
6863;DHT22;3470;48.738;9.616;2023-02-15T09:51:29;22.60;55.20
6863;DHT22;3470;48.738;9.616;2023-02-15T10:02:44;23.50;54.20
6863;DHT22;3470;48.738;9.616;2023-02-15T10:05:53;23.50;53.90
6863;DHT22;3470;48.738;9.616;2023-02-15T10:08:52;23.50;53.20
6863;DHT22;3470;48.738;9.616;2023-02-15T10:14:32;24.30;53.00
6863;DHT22;3470;48.738;9.616;2023-02-15T10:17:27;25.40;52.40
6863;DHT22;3470;48.738;9.616;2023-02-15T10:20:24;25.70;51.70
6863;DHT22;3470;48.738;9.616;2023-02-15T10:28:51;25.10;51.40
6863;DHT22;3470;48.738;9.616;2023-02-15T10:31:27;25.30;51.60
6863;DHT22;3470;48.738;9.616;2023-02-15T10:34:17;24.90;51.90
6863;DHT22;3470;48.738;9.616;2023-02-15T10:48:00;25.20;51.00
6863;DHT22;3470;48.738;9.616;2023-02-15T10:50:50;24.40;51.90
6863;DHT22;3470;48.738;9.616;2023-02-15T10:56:17;25.80;50.30
6863;DHT22;3470;48.738;9.616;2023-02-15T11:01:57;26.90;50.00
6863;DHT22;3470;48.738;9.616;2023-02-15T11:04:48;27.70;48.50
6863;DHT22;3470;48.738;9.616;2023-02-15T11:07:24;27.10;48.60
6863;DHT22;3470;48.738;9.616;2023-02-15T11:10:05;27.10;48.70
6863;DHT22;3470;48.738;9.616;2023-02-15T11:12:33;27.60;48.50
6863;DHT22;3470;48.738;9.616;2023-02-15T11:15:11;24.60;50.00
6863;DHT22;3470;48.738;9.616;2023-02-15T11:17:46;24.60;50.40
6863;DHT22;3470;48.738;9.616;2023-02-15T11:20:22;25.20;49.60
6863;DHT22;3470;48.738;9.616;2023-02-15T11:22:50;26.60;49.10
6863;DHT22;3470;48.738;9.616;2023-02-15T11:25:32;26.50;49.60
6863;DHT22;3470;48.738;9.616;2023-02-15T11:28:03;27.30;48.60
6863;DHT22;3470;48.738;9.616;2023-02-15T11:30:54;28.70;46.80
6863;DHT22;3470;48.738;9.616;2023-02-15T11:33:26;28.00;47.00
6863;DHT22;3470;48.738;9.616;2023-02-15T11:36:01;27.40;47.20
6863;DHT22;3470;48.738;9.616;2023-02-15T11:38:32;26.80;48.50
6863;DHT22;3470;48.738;9.616;2023-02-15T11:41:11;28.70;46.20
6863;DHT22;3470;48.738;9.616;2023-02-15T11:43:42;29.70;45.50
6863;DHT22;3470;48.738;9.616;2023-02-15T11:46:11;29.50;45.50
6863;DHT22;3470;48.738;9.616;2023-02-15T11:48:37;29.80;46.10
6863;DHT22;3470;48.738;9.616;2023-02-15T11:51:04;29.50;45.00
6863;DHT22;3470;48.738;9.616;2023-02-15T11:53:32;30.70;44.20
6863;DHT22;3470;48.738;9.616;2023-02-15T11:55:59;31.40;42.40
6863;DHT22;3470;48.738;9.616;2023-02-15T11:58:33;30.70;41.60
6863;DHT22;3470;48.738;9.616;2023-02-15T12:03:53;31.90;40.90
6863;DHT22;3470;48.738;9.616;2023-02-15T12:06:29;32.70;40.60
6863;DHT22;3470;48.738;9.616;2023-02-15T12:09:30;33.10;40.60
6863;DHT22;3470;48.738;9.616;2023-02-15T12:12:25;31.20;41.60
6863;DHT22;3470;48.738;9.616;2023-02-15T12:14:56;31.20;42.10
6863;DHT22;3470;48.738;9.616;2023-02-15T12:17:52;32.20;41.40
6863;DHT22;3470;48.738;9.616;2023-02-15T12:22:52;30.90;41.90
6863;DHT22;3470;48.738;9.616;2023-02-15T12:25:37;31.80;41.40
6863;DHT22;3470;48.738;9.616;2023-02-15T12:30:47;31.50;41.20
6863;DHT22;3470;48.738;9.616;2023-02-15T12:38:39;31.60;40.40
6863;DHT22;3470;48.738;9.616;2023-02-15T12:43:46;32.50;39.70
6863;DHT22;3470;48.738;9.616;2023-02-15T12:46:20;32.80;39.70
6863;DHT22;3470;48.738;9.616;2023-02-15T12:48:46;32.00;40.60
6863;DHT22;3470;48.738;9.616;2023-02-15T12:51:15;32.10;40.40
6863;DHT22;3470;48.738;9.616;2023-02-15T12:53:41;31.50;40.80
6863;DHT22;3470;48.738;9.616;2023-02-15T12:56:09;30.90;40.80
6863;DHT22;3470;48.738;9.616;2023-02-15T12:58:37;29.80;41.50
6863;DHT22;3470;48.738;9.616;2023-02-15T13:03:29;27.20;43.50
6863;DHT22;3470;48.738;9.616;2023-02-15T13:05:56;26.80;43.10
6863;DHT22;3470;48.738;9.616;2023-02-15T13:08:31;28.90;42.70
6863;DHT22;3470;48.738;9.616;2023-02-15T13:11:07;28.70;42.50
6863;DHT22;3470;48.738;9.616;2023-02-15T13:13:58;27.70;42.80
6863;DHT22;3470;48.738;9.616;2023-02-15T13:16:33;28.60;42.80
6863;DHT22;3470;48.738;9.616;2023-02-15T13:22:01;27.90;42.70
6863;DHT22;3470;48.738;9.616;2023-02-15T13:24:32;27.70;44.00
6863;DHT22;3470;48.738;9.616;2023-02-15T13:26:59;29.00;43.50
6863;DHT22;3470;48.738;9.616;2023-02-15T13:29:33;29.10;43.10
6863;DHT22;3470;48.738;9.616;2023-02-15T13:32:13;29.60;43.40
6863;DHT22;3470;48.738;9.616;2023-02-15T13:34:40;29.10;44.30
6863;DHT22;3470;48.738;9.616;2023-02-15T13:42:54;30.20;43.10
6863;DHT22;3470;48.738;9.616;2023-02-15T13:45:36;30.90;42.20
6863;DHT22;3470;48.738;9.616;2023-02-15T13:48:32;30.70;41.70
6863;DHT22;3470;48.738;9.616;2023-02-15T13:51:21;30.50;42.20
6863;DHT22;3470;48.738;9.616;2023-02-15T13:59:27;31.10;41.00
6863;DHT22;3470;48.738;9.616;2023-02-15T14:05:05;30.30;42.40
6863;DHT22;3470;48.738;9.616;2023-02-15T18:09:51;6.00;83.30
6863;DHT22;3470;48.738;9.616;2023-02-15T18:12:35;5.60;84.60
6863;DHT22;3470;48.738;9.616;2023-02-15T18:15:04;5.50;85.00
6863;DHT22;3470;48.738;9.616;2023-02-15T19:00:23;5.40;88.90
6863;DHT22;3470;48.738;9.616;2023-02-15T19:02:53;5.40;89.70
6863;DHT22;3470;48.738;9.616;2023-02-15T19:05:19;5.40;89.60
6863;DHT22;3470;48.738;9.616;2023-02-15T19:07:47;5.40;89.40
6863;DHT22;3470;48.738;9.616;2023-02-15T19:10:19;5.40;89.40
6863;DHT22;3470;48.738;9.616;2023-02-15T19:12:49;5.50;89.50
6863;DHT22;3470;48.738;9.616;2023-02-15T19:15:16;5.50;89.50
6863;DHT22;3470;48.738;9.616;2023-02-15T19:17:42;5.50;89.50
6863;DHT22;3470;48.738;9.616;2023-02-15T19:20:20;5.50;89.60
6863;DHT22;3470;48.738;9.616;2023-02-15T19:22:47;5.50;89.30
6863;DHT22;3470;48.738;9.616;2023-02-15T19:25:20;5.40;89.40
6863;DHT22;3470;48.738;9.616;2023-02-15T19:27:46;5.40;89.80
6863;DHT22;3470;48.738;9.616;2023-02-15T19:30:38;5.40;89.90
6863;DHT22;3470;48.738;9.616;2023-02-15T19:33:04;5.40;90.00
6863;DHT22;3470;48.738;9.616;2023-02-15T19:35:33;5.30;90.10
6863;DHT22;3470;48.738;9.616;2023-02-15T19:38:03;5.20;90.40
6863;DHT22;3470;48.738;9.616;2023-02-15T19:40:33;5.30;90.60
6863;DHT22;3470;48.738;9.616;2023-02-15T19:42:59;5.40;90.70
6863;DHT22;3470;48.738;9.616;2023-02-15T19:45:27;5.50;90.90
6863;DHT22;3470;48.738;9.616;2023-02-15T19:47:54;5.60;91.10
6863;DHT22;3470;48.738;9.616;2023-02-15T19:50:22;5.70;91.10
6863;DHT22;3470;48.738;9.616;2023-02-15T19:52:48;5.60;91.20
6863;DHT22;3470;48.738;9.616;2023-02-15T19:55:24;5.50;91.40
6863;DHT22;3470;48.738;9.616;2023-02-15T19:57:51;5.40;91.90
6863;DHT22;3470;48.738;9.616;2023-02-15T20:00:18;5.40;91.90
6863;DHT22;3470;48.738;9.616;2023-02-15T20:02:45;5.30;92.20
6863;DHT22;3470;48.738;9.616;2023-02-15T20:05:11;5.20;92.30
6863;DHT22;3470;48.738;9.616;2023-02-15T20:07:37;5.00;92.70
6863;DHT22;3470;48.738;9.616;2023-02-15T20:10:08;4.90;93.00
6863;DHT22;3470;48.738;9.616;2023-02-15T20:12:35;4.80;93.30
6863;DHT22;3470;48.738;9.616;2023-02-15T20:15:00;4.70;93.80
6863;DHT22;3470;48.738;9.616;2023-02-15T20:17:26;4.60;94.00
6863;DHT22;3470;48.738;9.616;2023-02-15T20:19:52;4.60;94.20
6863;DHT22;3470;48.738;9.616;2023-02-15T20:22:24;4.50;94.40
6863;DHT22;3470;48.738;9.616;2023-02-15T20:24:50;4.30;94.70
6863;DHT22;3470;48.738;9.616;2023-02-15T20:27:17;4.20;95.20
6863;DHT22;3470;48.738;9.616;2023-02-15T20:29:43;4.10;95.70
6863;DHT22;3470;48.738;9.616;2023-02-15T20:32:09;4.00;96.60
6863;DHT22;3470;48.738;9.616;2023-02-15T20:34:35;4.10;96.80
6863;DHT22;3470;48.738;9.616;2023-02-15T20:37:02;4.00;97.10
6863;DHT22;3470;48.738;9.616;2023-02-15T20:39:28;4.10;97.40
6863;DHT22;3470;48.738;9.616;2023-02-15T20:41:53;4.10;97.30
6863;DHT22;3470;48.738;9.616;2023-02-15T20:44:37;4.00;97.40
6863;DHT22;3470;48.738;9.616;2023-02-15T20:47:05;4.00;97.70
6863;DHT22;3470;48.738;9.616;2023-02-15T20:49:31;4.20;97.80
6863;DHT22;3470;48.738;9.616;2023-02-15T20:51:57;4.20;97.50
6863;DHT22;3470;48.738;9.616;2023-02-15T20:54:29;4.30;97.30
6863;DHT22;3470;48.738;9.616;2023-02-15T20:56:57;4.30;97.20
6863;DHT22;3470;48.738;9.616;2023-02-15T20:59:29;4.30;97.30
6863;DHT22;3470;48.738;9.616;2023-02-15T21:02:00;4.30;97.40
6863;DHT22;3470;48.738;9.616;2023-02-15T21:04:31;4.20;97.40
6863;DHT22;3470;48.738;9.616;2023-02-15T21:06:58;4.30;97.50
6863;DHT22;3470;48.738;9.616;2023-02-15T21:09:24;4.20;97.30
6863;DHT22;3470;48.738;9.616;2023-02-15T21:11:52;4.20;97.30
6863;DHT22;3470;48.738;9.616;2023-02-15T21:14:20;4.20;97.30
6863;DHT22;3470;48.738;9.616;2023-02-15T21:16:47;4.20;97.30
6863;DHT22;3470;48.738;9.616;2023-02-15T21:19:16;4.10;97.60
6863;DHT22;3470;48.738;9.616;2023-02-15T21:21:42;4.00;97.30
6863;DHT22;3470;48.738;9.616;2023-02-15T21:24:26;4.00;97.30
6863;DHT22;3470;48.738;9.616;2023-02-15T21:26:52;4.10;97.00
6863;DHT22;3470;48.738;9.616;2023-02-15T21:29:21;4.20;97.00
6863;DHT22;3470;48.738;9.616;2023-02-15T21:31:47;4.20;96.80
6863;DHT22;3470;48.738;9.616;2023-02-15T21:34:13;4.20;96.50
6863;DHT22;3470;48.738;9.616;2023-02-15T21:36:40;4.30;96.20
6863;DHT22;3470;48.738;9.616;2023-02-15T21:39:14;4.30;95.90
6863;DHT22;3470;48.738;9.616;2023-02-15T21:41:41;4.50;95.40
6863;DHT22;3470;48.738;9.616;2023-02-15T21:44:26;4.60;95.10
6863;DHT22;3470;48.738;9.616;2023-02-15T21:47:18;4.50;95.00
6863;DHT22;3470;48.738;9.616;2023-02-15T21:50:04;4.60;94.80
6863;DHT22;3470;48.738;9.616;2023-02-15T21:52:50;4.50;94.80
6863;DHT22;3470;48.738;9.616;2023-02-15T21:55:16;4.30;95.00
6863;DHT22;3470;48.738;9.616;2023-02-15T21:57:42;4.20;95.00
6863;DHT22;3470;48.738;9.616;2023-02-15T22:00:19;4.30;95.00
6863;DHT22;3470;48.738;9.616;2023-02-15T22:02:46;4.50;94.70
6863;DHT22;3470;48.738;9.616;2023-02-15T22:05:17;4.60;94.10
6863;DHT22;3470;48.738;9.616;2023-02-15T22:07:43;4.60;94.00
6863;DHT22;3470;48.738;9.616;2023-02-15T22:10:11;4.60;94.00
6863;DHT22;3470;48.738;9.616;2023-02-15T22:12:38;4.60;94.00
6863;DHT22;3470;48.738;9.616;2023-02-15T22:15:04;4.40;94.20
6863;DHT22;3470;48.738;9.616;2023-02-15T22:17:30;4.30;94.40
6863;DHT22;3470;48.738;9.616;2023-02-15T22:19:59;4.30;94.80
6863;DHT22;3470;48.738;9.616;2023-02-15T22:22:24;4.20;94.80
6863;DHT22;3470;48.738;9.616;2023-02-15T22:24:50;4.20;94.90
6863;DHT22;3470;48.738;9.616;2023-02-15T22:27:22;4.00;95.00
6863;DHT22;3470;48.738;9.616;2023-02-15T22:29:50;4.00;95.20
6863;DHT22;3470;48.738;9.616;2023-02-15T22:32:21;3.90;95.40
6863;DHT22;3470;48.738;9.616;2023-02-15T22:34:47;3.90;95.60
6863;DHT22;3470;48.738;9.616;2023-02-15T22:37:13;3.90;95.70
6863;DHT22;3470;48.738;9.616;2023-02-15T22:39:38;3.80;95.70
6863;DHT22;3470;48.738;9.616;2023-02-15T22:42:04;3.70;95.90
6863;DHT22;3470;48.738;9.616;2023-02-15T22:44:32;3.60;96.40
6863;DHT22;3470;48.738;9.616;2023-02-15T22:46:59;3.50;96.40
6863;DHT22;3470;48.738;9.616;2023-02-15T22:49:25;3.50;96.50
6863;DHT22;3470;48.738;9.616;2023-02-15T22:51:53;3.50;96.80
6863;DHT22;3470;48.738;9.616;2023-02-15T22:54:19;3.40;96.80
6863;DHT22;3470;48.738;9.616;2023-02-15T22:56:54;3.40;96.90